Time;durP1;ratioP1;P1;durP2;ratioP2;P2;SDS_P1;SDS_P2;PMS_P1;PMS_P2;Temp;Humidity;BMP_temperature;BMP_pressure;BME280_temperature;BME280_humidity;BME280_pressure;Samples;Min_cycle;Max_cycle;Signal;HPM_P1;HPM_P2
2023/10/27 00:00:45;;;;;;;6.70;3.30;;;8.70;1.00;;;;;;5035166;28;20281;-64
2023/10/27 00:03:11;;;;;;;3.03;2.83;;;8.70;1.00;;;;;;5035084;28;20167;-64
2023/10/27 00:05:36;;;;;;;2.87;2.67;;;8.80;1.00;;;;;;5034001;28;20189;-65
2023/10/27 00:08:02;;;;;;;2.67;2.37;;;8.80;1.00;;;;;;5034584;28;20197;-63
2023/10/27 00:10:28;;;;;;;3.40;3.13;;;8.80;1.00;;;;;;5034562;28;20194;-67
2023/10/27 00:12:54;;;;;;;3.53;3.23;;;8.70;1.00;;;;;;5045033;28;20171;-76
2023/10/27 00:15:20;;;;;;;3.00;2.70;;;8.70;1.00;;;;;;5038451;28;20426;-64
2023/10/27 00:17:46;;;;;;;4.90;2.47;;;8.80;1.00;;;;;;5034605;28;20426;-64
2023/10/27 00:20:12;;;;;;;3.00;2.70;;;8.80;1.00;;;;;;5034544;28;20578;-64
2023/10/27 00:22:38;;;;;;;3.03;2.70;;;8.70;1.00;;;;;;5034628;28;20569;-64
2023/10/27 00:25:04;;;;;;;2.60;2.40;;;8.70;1.00;;;;;;5034134;28;20523;-72
2023/10/27 00:27:30;;;;;;;4.23;3.07;;;8.80;1.00;;;;;;5034200;28;20358;-66
2023/10/27 00:29:55;;;;;;;3.20;3.00;;;8.80;1.00;;;;;;5033601;28;20410;-64
2023/10/27 00:32:21;;;;;;;3.20;3.00;;;8.70;1.00;;;;;;5034367;28;20178;-64
2023/10/27 00:34:47;;;;;;;3.67;2.90;;;8.70;1.00;;;;;;5036942;28;20170;-64
2023/10/27 00:37:13;;;;;;;7.27;3.13;;;8.70;1.00;;;;;;5034887;28;20198;-64
2023/10/27 00:39:39;;;;;;;3.00;2.80;;;8.70;1.00;;;;;;5034391;28;20296;-64
2023/10/27 00:42:08;;;;;;;3.40;3.20;;;8.70;1.00;;;;;;5037820;28;20200;-64
2023/10/27 00:44:34;;;;;;;4.67;2.70;;;8.70;1.00;;;;;;5043140;28;20467;-66
2023/10/27 00:47:00;;;;;;;3.10;2.90;;;8.70;1.00;;;;;;5035968;28;20440;-64
2023/10/27 00:49:27;;;;;;;3.50;3.00;;;8.70;1.00;;;;;;5034129;28;20375;-64
2023/10/27 00:51:53;;;;;;;2.80;2.60;;;8.70;1.00;;;;;;5032959;28;20175;-64
2023/10/27 00:54:20;;;;;;;3.73;3.00;;;8.70;1.00;;;;;;5033035;28;20502;-64
2023/10/27 00:56:49;;;;;;;4.17;2.87;;;8.60;1.00;;;;;;5033009;28;20426;-64
2023/10/27 00:59:15;;;;;;;3.30;3.00;;;8.60;1.00;;;;;;5033945;28;20466;-64
2023/10/27 01:01:42;;;;;;;3.27;3.03;;;8.60;1.00;;;;;;5033367;28;20465;-64
2023/10/27 01:04:08;;;;;;;3.53;3.23;;;8.60;1.00;;;;;;5037267;28;20189;-65
2023/10/27 01:06:34;;;;;;;3.40;3.10;;;8.60;1.00;;;;;;5032644;28;20437;-64
2023/10/27 01:09:00;;;;;;;2.97;2.77;;;8.50;1.00;;;;;;5033701;28;20174;-64
2023/10/27 01:11:26;;;;;;;4.00;3.70;;;8.60;1.00;;;;;;5033877;28;20395;-64
2023/10/27 01:13:53;;;;;;;5.27;4.33;;;8.60;1.00;;;;;;5033755;28;20169;-63
2023/10/27 01:16:18;;;;;;;5.53;3.57;;;8.60;1.00;;;;;;5039002;28;20213;-64
2023/10/27 01:18:44;;;;;;;7.90;4.50;;;8.60;1.00;;;;;;5047549;28;20496;-64
2023/10/27 01:21:10;;;;;;;3.33;3.07;;;8.60;1.00;;;;;;5031930;28;20203;-70
2023/10/27 01:23:36;;;;;;;4.43;3.10;;;8.60;1.00;;;;;;5031896;28;20410;-64
2023/10/27 01:26:03;;;;;;;3.40;3.10;;;8.60;1.00;;;;;;5034081;28;20197;-64
2023/10/27 01:28:30;;;;;;;2.90;2.70;;;8.60;1.00;;;;;;5040974;28;20519;-64
2023/10/27 01:30:56;;;;;;;3.73;3.30;;;8.60;1.00;;;;;;5033445;28;20404;-64
2023/10/27 01:33:25;;;;;;;4.13;3.53;;;8.60;1.00;;;;;;5033498;28;20438;-64
2023/10/27 01:35:52;;;;;;;3.90;3.60;;;8.60;1.00;;;;;;5032568;28;20461;-64
2023/10/27 01:38:18;;;;;;;4.40;3.17;;;8.70;1.00;;;;;;5031830;28;20384;-64
2023/10/27 01:40:43;;;;;;;5.20;3.87;;;8.70;1.00;;;;;;5048357;28;20456;-69
2023/10/27 01:43:09;;;;;;;3.97;3.67;;;8.60;1.00;;;;;;5047529;28;20440;-67
2023/10/27 01:45:35;;;;;;;4.03;2.87;;;8.60;1.00;;;;;;5037061;28;20174;-64
2023/10/27 01:48:01;;;;;;;4.10;3.70;;;8.70;1.00;;;;;;5031884;28;20208;-64
2023/10/27 01:50:26;;;;;;;3.90;3.23;;;8.60;1.00;;;;;;5033251;28;20167;-65
2023/10/27 01:52:52;;;;;;;3.40;3.00;;;8.70;1.00;;;;;;5033356;28;20175;-68
2023/10/27 01:55:18;;;;;;;4.07;3.67;;;8.70;1.00;;;;;;5032372;28;20387;-64
2023/10/27 01:57:44;;;;;;;3.23;2.97;;;8.60;1.00;;;;;;5032392;28;20221;-65
2023/10/27 02:00:10;;;;;;;3.70;3.30;;;8.60;1.00;;;;;;5032985;28;20278;-64
2023/10/27 02:02:36;;;;;;;3.70;3.40;;;8.70;1.00;;;;;;5035081;28;20446;-63
2023/10/27 02:05:03;;;;;;;4.83;3.87;;;8.70;1.00;;;;;;5033203;28;20446;-64
2023/10/27 02:07:29;;;;;;;5.00;2.90;;;8.70;1.00;;;;;;5032887;28;21199;-64
2023/10/27 02:09:59;;;;;;;5.77;3.50;;;8.70;1.00;;;;;;5033113;28;20394;-64
2023/10/27 02:12:28;;;;;;;3.90;3.60;;;8.70;1.00;;;;;;5033122;28;20180;-64
2023/10/27 02:14:54;;;;;;;5.70;3.27;;;8.60;1.00;;;;;;5041141;28;20383;-80
2023/10/27 02:17:20;;;;;;;5.73;3.63;;;8.60;1.00;;;;;;5039468;28;20444;-63
2023/10/27 02:19:47;;;;;;;8.03;3.30;;;8.60;1.00;;;;;;5046834;28;20475;-64
2023/10/27 02:22:13;;;;;;;3.93;3.63;;;8.70;1.00;;;;;;5033191;28;20379;-64
2023/10/27 02:24:39;;;;;;;4.30;3.10;;;8.60;1.00;;;;;;5032263;28;20372;-64
2023/10/27 02:27:04;;;;;;;6.10;3.70;;;8.60;1.00;;;;;;5032949;28;20635;-64
2023/10/27 02:29:30;;;;;;;4.10;3.20;;;8.60;1.00;;;;;;5031471;28;20391;-65
2023/10/27 02:31:56;;;;;;;3.53;3.33;;;8.60;1.00;;;;;;5033365;28;20164;-64
2023/10/27 02:34:21;;;;;;;3.53;3.23;;;8.60;1.00;;;;;;5032470;28;20192;-69
2023/10/27 02:36:47;;;;;;;10.37;3.53;;;8.60;1.00;;;;;;5033696;28;20207;-68
2023/10/27 02:39:13;;;;;;;4.20;2.87;;;8.70;1.00;;;;;;5033885;28;20182;-64
2023/10/27 02:41:38;;;;;;;10.27;4.13;;;8.70;1.00;;;;;;5031502;28;20176;-64
2023/10/27 02:44:04;;;;;;;3.93;3.53;;;8.70;1.00;;;;;;5032790;28;20168;-64
2023/10/27 02:46:32;;;;;;;3.40;3.10;;;8.70;1.00;;;;;;5031956;28;20241;-64
2023/10/27 02:48:58;;;;;;;10.20;3.53;;;8.70;1.00;;;;;;5045371;28;20461;-64
2023/10/27 02:51:25;;;;;;;9.23;4.00;;;8.80;1.00;;;;;;5051908;28;20474;-67
2023/10/27 02:53:50;;;;;;;4.70;3.37;;;8.80;1.00;;;;;;5037521;28;20203;-64
2023/10/27 02:56:16;;;;;;;7.30;3.33;;;8.70;1.00;;;;;;5035915;28;20488;-64
2023/10/27 02:58:42;;;;;;;6.43;3.57;;;8.80;1.00;;;;;;5035175;28;20257;-63
2023/10/27 03:01:14;;;;;;;6.40;3.70;;;8.80;1.00;;;;;;5036274;28;20552;-64
2023/10/27 03:03:40;;;;;;;3.97;3.57;;;8.70;1.00;;;;;;5036150;28;20412;-64
2023/10/27 03:06:06;;;;;;;7.20;4.13;;;8.70;1.00;;;;;;5035029;28;20436;-63
2023/10/27 03:08:33;;;;;;;4.60;4.20;;;8.70;1.00;;;;;;5034584;28;20388;-63
2023/10/27 03:10:58;;;;;;;10.23;3.53;;;8.60;1.00;;;;;;5038337;28;20437;-63
2023/10/27 03:13:29;;;;;;;3.73;3.43;;;8.60;1.00;;;;;;5036442;28;20420;-64
2023/10/27 03:15:57;;;;;;;8.30;4.13;;;8.70;1.00;;;;;;5033480;28;20401;-75
2023/10/27 03:18:23;;;;;;;5.87;3.87;;;8.70;1.00;;;;;;5040306;28;20425;-64
2023/10/27 03:20:55;;;;;;;5.57;3.77;;;8.80;1.00;;;;;;5034736;28;20430;-63
2023/10/27 03:23:22;;;;;;;5.33;3.70;;;8.80;1.00;;;;;;5035855;28;20387;-64
2023/10/27 03:25:47;;;;;;;3.90;3.60;;;8.70;1.00;;;;;;5034402;28;20426;-64
2023/10/27 03:28:13;;;;;;;6.83;3.33;;;8.70;1.00;;;;;;5035706;28;20730;-64
2023/10/27 03:30:39;;;;;;;11.97;5.37;;;8.70;1.00;;;;;;5035331;28;20263;-63
2023/10/27 03:33:05;;;;;;;7.63;4.10;;;8.70;1.00;;;;;;5035659;28;20473;-63
2023/10/27 03:35:31;;;;;;;4.53;3.93;;;8.70;1.00;;;;;;5038139;28;20235;-64
2023/10/27 03:37:56;;;;;;;7.27;3.60;;;8.70;1.00;;;;;;5035682;28;20249;-65
2023/10/27 03:40:22;;;;;;;4.30;3.77;;;8.80;1.00;;;;;;5035418;28;20815;-64
2023/10/27 03:42:48;;;;;;;5.43;4.07;;;8.80;1.00;;;;;;5035174;28;20206;-64
2023/10/27 03:45:13;;;;;;;4.50;3.00;;;8.80;1.00;;;;;;5034484;28;20214;-64
2023/10/27 03:47:39;;;;;;;5.33;3.27;;;8.80;1.00;;;;;;5035012;28;20199;-64
2023/10/27 03:50:05;;;;;;;4.67;3.80;;;8.80;1.00;;;;;;5035305;28;20237;-64
2023/10/27 03:52:31;;;;;;;7.00;3.67;;;8.80;1.00;;;;;;5037456;28;20195;-64
2023/10/27 03:54:57;;;;;;;3.47;3.20;;;8.70;1.00;;;;;;5035187;28;20397;-64
2023/10/27 03:57:22;;;;;;;5.93;3.30;;;8.70;1.00;;;;;;5035142;28;20203;-63
2023/10/27 03:59:48;;;;;;;9.60;3.73;;;8.70;1.00;;;;;;5033727;28;20218;-66
2023/10/27 04:02:15;;;;;;;8.70;3.90;;;8.60;1.00;;;;;;5034608;28;20237;-64
2023/10/27 04:04:41;;;;;;;9.77;4.57;;;8.60;1.00;;;;;;5033390;28;20176;-68
2023/10/27 04:07:07;;;;;;;8.20;3.87;;;8.60;1.00;;;;;;5034277;28;20430;-64
2023/10/27 04:09:33;;;;;;;4.13;3.67;;;8.60;1.00;;;;;;5037249;28;20519;-64
2023/10/27 04:11:58;;;;;;;5.60;3.73;;;8.70;1.00;;;;;;5035783;28;20186;-69
2023/10/27 04:14:24;;;;;;;7.90;4.20;;;8.70;1.00;;;;;;5047627;28;20263;-65
2023/10/27 04:16:50;;;;;;;5.80;4.10;;;8.70;1.00;;;;;;5049826;28;20204;-64
2023/10/27 04:19:15;;;;;;;4.10;3.70;;;8.70;1.00;;;;;;5037187;28;20185;-64
2023/10/27 04:21:41;;;;;;;4.17;3.87;;;8.70;1.00;;;;;;5034236;28;20699;-64
2023/10/27 04:24:07;;;;;;;5.60;3.67;;;8.70;1.00;;;;;;5034277;28;20168;-64
2023/10/27 04:26:33;;;;;;;5.63;3.57;;;8.70;1.00;;;;;;5036143;28;20203;-64
2023/10/27 04:28:58;;;;;;;4.10;3.70;;;8.80;1.00;;;;;;5034540;28;20502;-64
2023/10/27 04:31:25;;;;;;;5.20;3.70;;;8.80;1.00;;;;;;5034492;28;20178;-64
2023/10/27 04:33:51;;;;;;;4.70;3.53;;;8.90;1.00;;;;;;5034630;28;20187;-64
2023/10/27 04:36:17;;;;;;;5.07;3.67;;;8.90;1.00;;;;;;5033569;28;20388;-64
2023/10/27 04:38:45;;;;;;;3.47;3.17;;;8.90;1.00;;;;;;5049088;28;20663;-64
2023/10/27 04:41:11;;;;;;;10.50;4.03;;;8.90;1.00;;;;;;5033955;28;20199;-64
2023/10/27 04:43:36;;;;;;;3.83;3.50;;;9.00;1.00;;;;;;5034605;28;20551;-64
2023/10/27 04:46:02;;;;;;;4.03;3.30;;;8.90;1.00;;;;;;5037723;28;20198;-64
2023/10/27 04:48:28;;;;;;;3.60;3.30;;;8.80;1.00;;;;;;5038451;28;20198;-64
2023/10/27 04:51:03;;;;;;;5.43;3.70;;;8.80;1.00;;;;;;5042755;28;20970;-64
2023/10/27 04:53:29;;;;;;;3.73;3.10;;;8.70;1.00;;;;;;5038463;28;20273;-64
2023/10/27 04:55:56;;;;;;;4.93;3.10;;;8.60;1.00;;;;;;5052666;28;20378;-64
2023/10/27 04:58:21;;;;;;;3.90;2.90;;;8.70;1.00;;;;;;5053944;28;20408;-63
2023/10/27 05:00:47;;;;;;;3.90;3.60;;;8.70;1.00;;;;;;5049309;28;20460;-64
2023/10/27 05:03:13;;;;;;;5.43;3.20;;;8.70;1.00;;;;;;5035121;28;20171;-64
2023/10/27 05:05:39;;;;;;;4.80;2.60;;;8.70;1.00;;;;;;5031939;28;20459;-69
2023/10/27 05:08:05;;;;;;;4.50;3.63;;;8.80;1.00;;;;;;5044460;28;20187;-63
2023/10/27 05:10:30;;;;;;;6.33;3.90;;;8.90;1.00;;;;;;5033616;28;20603;-65
2023/10/27 05:12:56;;;;;;;8.20;4.67;;;8.80;1.00;;;;;;5033448;28;20398;-64
2023/10/27 05:15:22;;;;;;;7.30;4.67;;;8.70;1.00;;;;;;5032873;28;20174;-64
2023/10/27 05:17:47;;;;;;;3.43;3.07;;;8.70;1.00;;;;;;5035672;28;20199;-63
2023/10/27 05:20:13;;;;;;;7.40;3.90;;;8.80;1.00;;;;;;5034075;28;20205;-64
2023/10/27 05:22:39;;;;;;;5.10;2.70;;;8.70;1.00;;;;;;5033586;28;20186;-64
2023/10/27 05:25:06;;;;;;;6.90;4.03;;;8.70;1.00;;;;;;5032636;28;20170;-69
2023/10/27 05:27:35;;;;;;;3.10;2.80;;;8.70;1.00;;;;;;5033626;28;20553;-64
2023/10/27 05:30:02;;;;;;;7.33;3.57;;;8.70;1.00;;;;;;5033163;28;20438;-64
2023/10/27 05:32:29;;;;;;;4.47;3.80;;;8.60;1.00;;;;;;5033618;28;20422;-64
2023/10/27 05:34:55;;;;;;;4.70;3.77;;;8.60;1.00;;;;;;5030628;28;20409;-71
2023/10/27 05:37:21;;;;;;;3.93;3.63;;;8.60;1.00;;;;;;5037401;28;20442;-64
2023/10/27 05:39:48;;;;;;;4.47;4.07;;;8.70;1.00;;;;;;5033392;28;20454;-64
2023/10/27 05:42:14;;;;;;;5.13;4.63;;;8.70;1.00;;;;;;5033531;28;20446;-63
2023/10/27 05:44:41;;;;;;;4.20;3.47;;;8.70;1.00;;;;;;5032436;28;20480;-64
2023/10/27 05:47:07;;;;;;;5.27;3.03;;;8.70;1.00;;;;;;5032857;28;20437;-63
2023/10/27 05:49:33;;;;;;;6.87;3.93;;;8.70;1.00;;;;;;5033194;28;20401;-64
2023/10/27 05:52:02;;;;;;;4.63;3.37;;;8.60;1.00;;;;;;5031848;28;20752;-66
2023/10/27 05:54:29;;;;;;;5.17;3.27;;;8.60;1.00;;;;;;5034877;28;20228;-64
2023/10/27 05:56:55;;;;;;;3.67;3.33;;;8.70;1.00;;;;;;5035309;28;20453;-64
2023/10/27 05:59:20;;;;;;;5.10;3.07;;;8.60;1.00;;;;;;5034097;28;20762;-64
2023/10/27 06:01:48;;;;;;;4.90;3.00;;;8.60;1.00;;;;;;5032632;28;20181;-64
2023/10/27 06:04:15;;;;;;;3.93;3.50;;;8.70;1.00;;;;;;5043021;28;20171;-64
2023/10/27 06:06:40;;;;;;;4.73;2.80;;;8.60;1.00;;;;;;5033758;28;20541;-64
2023/10/27 06:09:06;;;;;;;4.03;3.30;;;8.60;1.00;;;;;;5033834;28;20411;-66
2023/10/27 06:11:32;;;;;;;4.80;3.27;;;8.60;1.00;;;;;;5033135;28;20192;-64
2023/10/27 06:13:58;;;;;;;3.77;3.47;;;8.70;1.00;;;;;;5033084;28;20229;-64
2023/10/27 06:16:24;;;;;;;3.50;3.20;;;8.60;1.00;;;;;;5032057;28;20192;-64
2023/10/27 06:18:52;;;;;;;3.67;3.30;;;8.40;1.00;;;;;;5036170;28;20957;-64
2023/10/27 06:21:18;;;;;;;4.60;4.30;;;8.40;1.00;;;;;;5033806;28;20242;-64
2023/10/27 06:23:44;;;;;;;4.23;3.83;;;8.40;1.00;;;;;;5033001;28;20414;-64
2023/10/27 06:26:10;;;;;;;3.60;3.30;;;8.40;1.00;;;;;;5031156;28;20436;-64
2023/10/27 06:28:36;;;;;;;5.30;3.83;;;8.40;1.00;;;;;;5033714;28;20407;-64
2023/10/27 06:31:03;;;;;;;16.67;4.63;;;8.40;1.00;;;;;;5045681;28;20228;-68
2023/10/27 06:33:32;;;;;;;4.23;3.83;;;8.40;1.00;;;;;;5036148;28;20189;-64
2023/10/27 06:35:59;;;;;;;8.17;3.90;;;8.40;1.00;;;;;;5041491;28;20397;-64
2023/10/27 06:38:25;;;;;;;3.90;3.60;;;8.30;1.00;;;;;;5056399;28;20460;-64
2023/10/27 06:40:50;;;;;;;8.60;3.33;;;8.30;1.00;;;;;;5055372;28;20497;-64
2023/10/27 06:43:16;;;;;;;4.03;3.30;;;8.40;1.00;;;;;;5055779;28;20172;-67
2023/10/27 06:45:42;;;;;;;4.47;3.33;;;8.40;1.00;;;;;;5039801;28;20295;-64
2023/10/27 06:48:08;;;;;;;3.63;3.33;;;8.50;1.00;;;;;;5044252;28;20273;-64
2023/10/27 06:50:33;;;;;;;7.67;4.00;;;8.50;1.00;;;;;;5036007;28;20190;-64
2023/10/27 06:52:59;;;;;;;4.17;3.03;;;8.50;1.00;;;;;;5035967;28;20178;-64
2023/10/27 06:55:25;;;;;;;2.80;2.60;;;8.40;1.00;;;;;;5035265;28;20183;-64
2023/10/27 06:57:50;;;;;;;6.60;3.17;;;8.40;1.00;;;;;;5036209;28;20208;-64
2023/10/27 07:00:16;;;;;;;3.17;2.73;;;8.40;1.00;;;;;;5036176;28;20201;-64
2023/10/27 07:02:42;;;;;;;3.30;2.90;;;8.40;1.00;;;;;;5035247;28;20187;-65
2023/10/27 07:05:11;;;;;;;3.73;3.40;;;8.40;1.00;;;;;;5054303;28;20432;-63
2023/10/27 07:07:36;;;;;;;7.60;4.43;;;8.40;1.00;;;;;;5056003;28;20668;-66
2023/10/27 07:10:04;;;;;;;8.40;5.30;;;8.40;1.00;;;;;;5047238;28;20494;-64
2023/10/27 07:12:30;;;;;;;5.53;4.13;;;8.40;1.00;;;;;;5050307;28;20736;-63
2023/10/27 07:14:56;;;;;;;5.77;3.97;;;8.40;1.00;;;;;;5043341;28;20501;-64
2023/10/27 07:17:22;;;;;;;8.73;4.33;;;8.50;1.00;;;;;;5035918;28;20829;-64
2023/10/27 07:19:48;;;;;;;4.43;4.03;;;8.50;1.00;;;;;;5035612;28;20205;-64
2023/10/27 07:22:15;;;;;;;4.50;3.97;;;8.50;1.00;;;;;;5035221;28;20902;-64
2023/10/27 07:24:41;;;;;;;5.10;4.00;;;8.50;1.00;;;;;;5034964;28;20266;-64
2023/10/27 07:27:07;;;;;;;5.13;4.13;;;8.50;1.00;;;;;;5035921;28;20522;-63
2023/10/27 07:29:32;;;;;;;3.60;3.30;;;8.50;1.00;;;;;;5035723;28;20186;-65
2023/10/27 07:31:58;;;;;;;8.97;6.63;;;8.50;1.00;;;;;;5037696;28;20183;-68
2023/10/27 07:34:24;;;;;;;7.80;4.40;;;8.60;1.00;;;;;;5036576;28;20192;-65
2023/10/27 07:36:50;;;;;;;9.53;4.00;;;8.60;1.00;;;;;;5034796;28;20266;-64
2023/10/27 07:39:16;;;;;;;5.57;4.13;;;8.50;1.00;;;;;;5034686;28;20416;-64
2023/10/27 07:41:42;;;;;;;7.10;4.10;;;8.60;1.00;;;;;;5035311;28;20400;-64
2023/10/27 07:44:08;;;;;;;4.00;3.70;;;8.60;1.00;;;;;;5035452;28;20381;-64
2023/10/27 07:46:34;;;;;;;5.90;4.37;;;8.50;1.00;;;;;;5033362;28;20188;-64
2023/10/27 07:48:59;;;;;;;5.27;3.67;;;8.60;1.00;;;;;;5035671;28;20408;-63
2023/10/27 07:51:25;;;;;;;3.80;3.37;;;8.70;1.00;;;;;;5035389;28;20462;-64
2023/10/27 07:53:51;;;;;;;5.77;3.73;;;8.60;1.00;;;;;;5035390;28;20655;-64
2023/10/27 07:56:18;;;;;;;6.50;3.13;;;8.60;1.00;;;;;;5034399;28;20207;-64
2023/10/27 07:58:46;;;;;;;3.20;3.00;;;8.60;1.00;;;;;;5034423;28;20164;-64
2023/10/27 08:01:12;;;;;;;4.27;3.37;;;8.60;1.00;;;;;;5035093;28;20457;-64
2023/10/27 08:03:38;;;;;;;5.33;4.00;;;8.60;1.00;;;;;;5034662;28;20449;-63
2023/10/27 08:06:08;;;;;;;5.80;4.33;;;8.70;1.00;;;;;;5034066;28;20206;-64
2023/10/27 08:08:37;;;;;;;4.40;3.30;;;8.80;1.00;;;;;;5035056;28;20179;-64
2023/10/27 08:11:04;;;;;;;5.37;3.17;;;8.80;1.00;;;;;;5034774;28;20505;-65
2023/10/27 08:13:30;;;;;;;2.80;2.43;;;8.70;1.00;;;;;;5034883;28;20414;-64
2023/10/27 08:15:56;;;;;;;4.20;3.60;;;8.70;1.00;;;;;;5036924;28;20404;-65
2023/10/27 08:18:22;;;;;;;2.93;2.40;;;8.80;1.00;;;;;;5054132;28;21073;-65
2023/10/27 08:20:50;;;;;;;4.03;3.10;;;8.80;1.00;;;;;;5054939;28;20554;-64
2023/10/27 08:23:15;;;;;;;3.03;2.57;;;8.80;1.00;;;;;;5054728;28;20177;-64
2023/10/27 08:25:41;;;;;;;3.10;2.90;;;8.80;1.00;;;;;;5053641;28;20401;-65
2023/10/27 08:28:08;;;;;;;3.27;2.97;;;8.80;1.00;;;;;;5054416;28;20193;-64
2023/10/27 08:30:33;;;;;;;4.53;4.10;;;8.80;1.00;;;;;;5054309;28;20178;-68
2023/10/27 08:32:59;;;;;;;3.27;3.07;;;8.80;1.00;;;;;;5053739;28;20491;-64
2023/10/27 08:35:25;;;;;;;3.10;2.30;;;8.80;1.00;;;;;;5053358;28;20271;-64
2023/10/27 08:37:50;;;;;;;3.20;2.87;;;8.80;1.00;;;;;;5054127;28;20203;-64
2023/10/27 08:40:17;;;;;;;3.80;3.00;;;8.70;1.00;;;;;;5049746;28;20657;-64
2023/10/27 08:42:44;;;;;;;3.93;2.60;;;8.80;1.00;;;;;;5034353;28;20265;-64
2023/10/27 08:45:10;;;;;;;3.93;2.57;;;8.70;1.00;;;;;;5033486;28;20398;-64
2023/10/27 08:47:36;;;;;;;3.43;3.13;;;8.70;1.00;;;;;;5032597;28;20420;-64
2023/10/27 08:50:04;;;;;;;4.33;3.17;;;8.70;1.00;;;;;;5033970;28;20416;-64
2023/10/27 08:52:31;;;;;;;4.13;2.63;;;8.70;1.00;;;;;;5033535;28;20430;-64
2023/10/27 08:55:06;;;;;;;3.63;2.50;;;8.80;1.00;;;;;;5033147;28;20502;-63
2023/10/27 08:57:31;;;;;;;2.77;2.57;;;8.80;1.00;;;;;;5034025;28;20438;-63
2023/10/27 08:59:57;;;;;;;5.23;3.60;;;8.80;1.00;;;;;;5046091;28;20573;-63
2023/10/27 09:02:33;;;;;;;3.07;2.87;;;8.80;1.00;;;;;;5052977;28;20172;-70
2023/10/27 09:05:06;;;;;;;3.93;2.70;;;8.90;1.00;;;;;;5037410;28;20266;-64
2023/10/27 09:07:33;;;;;;;3.27;2.50;;;8.80;1.00;;;;;;5033141;28;20440;-64
2023/10/27 09:10:00;;;;;;;3.53;2.83;;;8.90;1.00;;;;;;5033751;28;20385;-64
2023/10/27 09:12:30;;;;;;;4.37;3.87;;;8.90;1.00;;;;;;5033892;28;20410;-64
2023/10/27 09:15:00;;;;;;;2.77;2.30;;;8.90;1.00;;;;;;5032987;28;20441;-64
2023/10/27 09:17:29;;;;;;;2.57;2.37;;;9.00;1.00;;;;;;5033621;28;20454;-64
2023/10/27 09:20:21;;;;;;;5.00;2.40;;;8.90;1.00;;;;;;5033576;28;20464;-64
2023/10/27 09:23:06;;;;;;;4.47;2.67;;;8.90;1.00;;;;;;5033238;28;20422;-64
2023/10/27 09:25:33;;;;;;;3.97;2.40;;;8.90;1.00;;;;;;5032420;28;20446;-63
2023/10/27 09:28:02;;;;;;;4.23;2.27;;;8.90;1.00;;;;;;5033039;28;20938;-64
2023/10/27 09:30:34;;;;;;;3.00;2.17;;;9.00;1.00;;;;;;5033455;28;20409;-64
2023/10/27 09:33:16;;;;;;;3.30;2.27;;;9.10;1.00;;;;;;5033531;28;20979;-64
2023/10/27 09:35:43;;;;;;;3.10;2.10;;;9.10;1.00;;;;;;5032465;28;20484;-63
2023/10/27 09:38:09;;;;;;;3.13;2.53;;;9.00;1.00;;;;;;5033697;28;20397;-64
2023/10/27 09:40:39;;;;;;;1.80;1.70;;;8.90;1.00;;;;;;5033249;28;20428;-64
2023/10/27 09:43:14;;;;;;;2.13;2.03;;;8.90;1.00;;;;;;5033173;28;20901;-65
2023/10/27 09:45:51;;;;;;;2.27;2.17;;;8.90;1.00;;;;;;5031543;28;20742;-63
2023/10/27 09:48:24;;;;;;;1.93;1.83;;;9.00;1.00;;;;;;5033572;28;20436;-63
2023/10/27 09:51:02;;;;;;;4.87;2.60;;;9.10;1.00;;;;;;5033507;28;20405;-64
2023/10/27 09:53:28;;;;;;;2.23;1.87;;;9.00;1.00;;;;;;5031928;28;20767;-65
2023/10/27 09:55:56;;;;;;;1.90;1.80;;;9.00;1.00;;;;;;5032275;28;20380;-64
2023/10/27 09:58:24;;;;;;;2.03;1.93;;;9.00;1.00;;;;;;5033318;28;20409;-63
2023/10/27 10:00:50;;;;;;;1.80;1.60;;;9.00;1.00;;;;;;5032748;28;20457;-64
2023/10/27 10:03:17;;;;;;;2.17;2.07;;;9.00;1.00;;;;;;5033127;28;20412;-64
2023/10/27 10:06:08;;;;;;;3.63;1.83;;;9.00;1.00;;;;;;5035816;28;20189;-64
2023/10/27 10:08:33;;;;;;;2.03;1.93;;;9.10;1.00;;;;;;5036375;28;20759;-63
2023/10/27 10:11:15;;;;;;;2.07;1.97;;;9.10;1.00;;;;;;5037274;28;20399;-64
2023/10/27 10:13:41;;;;;;;2.00;1.90;;;9.00;1.00;;;;;;5037072;28;20200;-64
2023/10/27 10:16:08;;;;;;;3.13;2.83;;;9.10;1.00;;;;;;5049348;28;20437;-64
2023/10/27 10:18:34;;;;;;;6.70;3.27;;;9.10;1.00;;;;;;5056533;28;20907;-64
2023/10/27 10:21:00;;;;;;;3.63;3.20;;;9.20;1.00;;;;;;5055221;28;20491;-64
2023/10/27 10:23:38;;;;;;;3.30;3.00;;;9.00;1.00;;;;;;5056722;28;20257;-64
2023/10/27 10:26:05;;;;;;;2.90;2.70;;;9.10;1.00;;;;;;5056055;28;20795;-64
2023/10/27 10:28:36;;;;;;;4.63;2.40;;;9.20;1.00;;;;;;5056931;28;20846;-66
2023/10/27 10:31:10;;;;;;;4.13;2.90;;;9.30;1.00;;;;;;5056734;28;20436;-65
2023/10/27 10:33:37;;;;;;;2.90;2.60;;;9.30;1.00;;;;;;5056738;28;20428;-64
2023/10/27 10:36:14;;;;;;;2.63;2.50;;;9.30;1.00;;;;;;5054637;28;20403;-64
2023/10/27 10:38:44;;;;;;;3.50;3.20;;;9.30;1.00;;;;;;5056100;28;20421;-64
2023/10/27 10:41:10;;;;;;;2.63;2.43;;;9.30;1.00;;;;;;5039492;28;20435;-66
2023/10/27 10:43:36;;;;;;;2.57;2.37;;;9.30;1.00;;;;;;5035331;28;20444;-64
2023/10/27 10:46:13;;;;;;;5.63;2.13;;;9.10;1.00;;;;;;5035856;28;20424;-64
2023/10/27 10:48:44;;;;;;;2.70;2.50;;;9.10;1.00;;;;;;5036452;28;20402;-64
2023/10/27 10:51:12;;;;;;;2.47;2.37;;;9.00;1.00;;;;;;5053785;28;20415;-65
2023/10/27 10:53:38;;;;;;;2.80;2.57;;;9.10;1.00;;;;;;5055140;28;20398;-64
2023/10/27 10:56:04;;;;;;;3.20;2.57;;;9.20;1.00;;;;;;5055539;28;20434;-64
2023/10/27 10:58:32;;;;;;;2.60;2.40;;;9.20;1.00;;;;;;5055650;28;20857;-64
2023/10/27 11:00:59;;;;;;;3.53;2.97;;;9.30;1.00;;;;;;5056048;28;20449;-64
2023/10/27 11:03:28;;;;;;;3.27;2.97;;;9.30;1.00;;;;;;5056225;28;20380;-64
2023/10/27 11:05:58;;;;;;;2.80;2.60;;;9.20;1.00;;;;;;5055336;28;20400;-64
2023/10/27 11:08:26;;;;;;;3.40;2.70;;;9.20;1.00;;;;;;5056155;28;20917;-64
2023/10/27 11:11:03;;;;;;;2.97;2.73;;;9.30;1.00;;;;;;5056015;28;20376;-64
2023/10/27 11:13:30;;;;;;;2.87;2.77;;;9.30;1.00;;;;;;5056037;28;20427;-65
2023/10/27 11:15:55;;;;;;;2.50;2.40;;;9.30;1.00;;;;;;5054173;28;20722;-64
2023/10/27 11:18:26;;;;;;;2.80;2.60;;;9.40;1.00;;;;;;5056078;28;20382;-64
2023/10/27 11:20:51;;;;;;;3.23;2.93;;;9.40;1.00;;;;;;5055559;28;20205;-64
2023/10/27 11:23:17;;;;;;;2.10;2.00;;;9.40;1.00;;;;;;5055909;28;20420;-64
2023/10/27 11:25:44;;;;;;;2.63;2.47;;;9.40;1.00;;;;;;5054967;28;20178;-64
2023/10/27 11:28:27;;;;;;;2.90;2.70;;;9.30;1.00;;;;;;5054560;28;20515;-64
2023/10/27 11:31:07;;;;;;;4.23;3.10;;;9.40;1.00;;;;;;5055446;28;20452;-64
2023/10/27 11:33:33;;;;;;;3.17;2.97;;;9.40;1.00;;;;;;5055138;28;20867;-64
2023/10/27 11:35:59;;;;;;;3.90;3.30;;;9.40;1.00;;;;;;5054612;28;20375;-64
2023/10/27 11:38:32;;;;;;;3.30;3.03;;;9.40;1.00;;;;;;5055321;28;20896;-64
2023/10/27 11:41:12;;;;;;;4.47;3.70;;;9.40;1.00;;;;;;5055366;28;20606;-64
2023/10/27 11:43:39;;;;;;;3.50;3.20;;;9.40;1.00;;;;;;5055431;28;20401;-64
2023/10/27 11:46:15;;;;;;;5.83;2.80;;;9.40;1.00;;;;;;5054858;28;20833;-64
2023/10/27 11:48:42;;;;;;;3.00;2.80;;;9.50;1.00;;;;;;5055304;28;20870;-64
2023/10/27 11:51:08;;;;;;;4.87;3.50;;;9.40;1.00;;;;;;5054986;28;20413;-64
2023/10/27 11:53:34;;;;;;;3.03;2.83;;;9.40;1.00;;;;;;5054922;28;20433;-64
2023/10/27 11:56:03;;;;;;;3.07;2.87;;;9.30;1.00;;;;;;5054565;28;20421;-64
2023/10/27 11:58:29;;;;;;;2.93;2.77;;;9.20;1.00;;;;;;5054911;28;20408;-64
2023/10/27 12:00:55;;;;;;;3.80;3.00;;;9.30;1.00;;;;;;5055220;28;20455;-64
2023/10/27 12:03:21;;;;;;;2.70;2.50;;;9.40;1.00;;;;;;5055302;28;20925;-64
2023/10/27 12:05:46;;;;;;;3.30;2.30;;;9.40;1.00;;;;;;5054164;28;20623;-65
2023/10/27 12:08:12;;;;;;;2.23;2.13;;;9.40;1.00;;;;;;5054023;28;20193;-64
2023/10/27 12:10:38;;;;;;;2.37;2.17;;;9.50;1.00;;;;;;5054459;28;20643;-65
2023/10/27 12:13:06;;;;;;;2.07;1.97;;;9.50;1.00;;;;;;5055258;28;20205;-64
2023/10/27 12:15:35;;;;;;;2.93;2.73;;;9.50;1.00;;;;;;5054274;28;20163;-67
2023/10/27 12:18:04;;;;;;;3.03;2.83;;;9.60;1.00;;;;;;5054160;28;20443;-71
2023/10/27 12:20:31;;;;;;;2.67;2.57;;;9.60;1.00;;;;;;5054767;28;20427;-64
2023/10/27 12:22:57;;;;;;;2.93;2.70;;;9.70;1.00;;;;;;5053511;28;20909;-64
2023/10/27 12:25:23;;;;;;;6.03;3.47;;;9.80;1.00;;;;;;5052298;28;20388;-65
2023/10/27 12:27:48;;;;;;;4.20;2.83;;;9.90;1.00;;;;;;5053192;28;20410;-64
2023/10/27 12:30:15;;;;;;;3.73;3.50;;;10.00;1.00;;;;;;5051759;28;20179;-64
2023/10/27 12:32:44;;;;;;;3.47;3.17;;;10.00;1.00;;;;;;5034768;28;20180;-64
2023/10/27 12:35:11;;;;;;;3.00;2.80;;;10.10;1.00;;;;;;5033838;28;20922;-64
2023/10/27 12:37:37;;;;;;;4.07;3.37;;;9.90;1.00;;;;;;5034381;28;20440;-64
2023/10/27 12:40:06;;;;;;;2.90;2.70;;;9.90;1.00;;;;;;5034233;28;20856;-64
2023/10/27 12:42:32;;;;;;;4.27;3.20;;;10.00;1.00;;;;;;5032741;28;20822;-64
2023/10/27 12:44:58;;;;;;;3.03;2.83;;;10.10;1.00;;;;;;5033757;28;20468;-64
2023/10/27 12:47:24;;;;;;;3.47;3.23;;;10.00;1.00;;;;;;5034043;28;20265;-64
2023/10/27 12:49:49;;;;;;;3.53;3.30;;;10.00;1.00;;;;;;5048235;28;20560;-64
2023/10/27 12:52:15;;;;;;;3.17;2.97;;;9.80;1.00;;;;;;5054072;28;20388;-68
2023/10/27 12:54:41;;;;;;;8.90;3.60;;;9.80;1.00;;;;;;5053338;28;20183;-64
2023/10/27 12:57:08;;;;;;;4.97;4.47;;;9.80;1.00;;;;;;5054212;28;20222;-64
2023/10/27 12:59:34;;;;;;;3.87;3.57;;;9.70;1.00;;;;;;5053764;28;20165;-64
2023/10/27 13:01:59;;;;;;;3.93;3.20;;;9.70;1.00;;;;;;5054006;28;20403;-64
2023/10/27 13:04:25;;;;;;;4.10;3.80;;;9.60;1.00;;;;;;5052454;28;20257;-64
2023/10/27 13:06:51;;;;;;;6.33;4.63;;;9.60;1.00;;;;;;5053178;28;20559;-65